Terminal Aerodrome Forecast
Issued by NWS Sterling, VA

Current Version | Previous Version | Graphics & Text | Print | Product List | Glossary On
Versions: 1 2 3 4 5 6 7 8 9 10 11 12 13 14 15 16 17 18 19 20 21 22
000
FTUS41 KLWX 281720
TAFIAD
TAF
KIAD 281720Z 2818/2924 08008KT 3SM RA BR FEW009 BKN014 OVC026
     FM282100 11006KT 2SM -SHRA BR VCTS OVC015CB
     FM290600 11007KT 6SM -SHRA BR OVC003
     FM290900 09008KT 6SM -SHRA BR OVC008
     FM291200 10009KT 1SM +SHRA OVC015=

USA.gov is the U.S. government's official web portal to all federal, state and local government web resources and services.